Time;durP1;ratioP1;P1;durP2;ratioP2;P2;SDS_P1;SDS_P2;PMS_P1;PMS_P2;Temp;Humidity;BMP_temperature;BMP_pressure;BME280_temperature;BME280_humidity;BME280_pressure;Samples;Min_cycle;Max_cycle;Signal;HPM_P1;HPM_P2
2021/08/12 00:00:03;;;;;;;12.65;7.40;;;;;;;;;;4973803;28;20765;-67
2021/08/12 00:02:28;;;;;;;11.27;7.18;;;;;;;;;;4973763;28;20262;-67
2021/08/12 00:04:53;;;;;;;12.27;6.63;;;;;;;;;;4973692;28;20049;-67
2021/08/12 00:07:20;;;;;;;13.98;7.13;;;;;;;;;;4973506;28;20413;-67
2021/08/12 00:09:46;;;;;;;10.98;7.05;;;;;;;;;;4973649;28;20018;-67
2021/08/12 00:12:11;;;;;;;11.98;7.63;;;;;;;;;;4973551;28;20023;-68
2021/08/12 00:14:36;;;;;;;11.30;7.30;;;;;;;;;;4973428;28;20102;-67
2021/08/12 00:17:01;;;;;;;11.15;6.75;;;;;;;;;;4973103;28;20383;-67
2021/08/12 00:19:27;;;;;;;11.23;7.20;;;;;;;;;;4973486;28;20467;-67
2021/08/12 00:21:52;;;;;;;11.27;7.43;;;;;;;;;;4971895;28;20335;-68
2021/08/12 00:24:21;;;;;;;11.23;7.20;;;;;;;;;;4973383;28;20337;-67
2021/08/12 00:26:47;;;;;;;14.90;7.67;;;;;;;;;;4974791;28;20289;-67
2021/08/12 00:29:13;;;;;;;9.48;6.78;;;;;;;;;;4973271;28;21070;-67
2021/08/12 00:31:38;;;;;;;11.30;7.32;;;;;;;;;;4973389;28;20065;-67
2021/08/12 00:34:03;;;;;;;11.50;7.30;;;;;;;;;;4973191;28;20030;-66
2021/08/12 00:36:28;;;;;;;13.13;8.05;;;;;;;;;;4973355;28;20254;-66
2021/08/12 00:38:53;;;;;;;10.75;7.30;;;;;;;;;;4971665;28;20879;-66
2021/08/12 00:41:19;;;;;;;11.50;6.65;;;;;;;;;;4973231;28;20478;-67
2021/08/12 00:43:44;;;;;;;9.68;6.68;;;;;;;;;;4972632;28;20612;-66
2021/08/12 00:46:09;;;;;;;13.27;7.77;;;;;;;;;;4972987;28;20371;-67
2021/08/12 00:48:34;;;;;;;16.15;7.75;;;;;;;;;;4972799;28;20274;-67
2021/08/12 00:51:00;;;;;;;16.65;8.13;;;;;;;;;;4987906;28;20034;-67
2021/08/12 00:53:25;;;;;;;13.60;7.68;;;;;;;;;;4972816;28;20594;-67
2021/08/12 00:55:50;;;;;;;13.70;7.57;;;;;;;;;;4972911;28;20018;-67
2021/08/12 00:58:15;;;;;;;14.43;7.63;;;;;;;;;;4972656;28;20031;-66
2021/08/12 01:00:41;;;;;;;13.77;8.07;;;;;;;;;;4972310;28;20384;-67
2021/08/12 01:03:10;;;;;;;12.65;7.82;;;;;;;;;;4972589;28;20053;-67
2021/08/12 01:05:37;;;;;;;13.43;7.85;;;;;;;;;;4972725;28;20113;-68
2021/08/12 01:08:07;;;;;;;12.13;7.85;;;;;;;;;;4972868;28;20102;-66
2021/08/12 01:10:32;;;;;;;;;;;;;;;;;;4973064;28;20076;-67
2021/08/12 01:12:57;;;;;;;11.05;7.60;;;;;;;;;;4972569;28;19906;-67
2021/08/12 01:15:29;;;;;;;13.52;7.70;;;;;;;;;;4972380;28;20262;-67
2021/08/12 01:18:02;;;;;;;11.73;7.68;;;;;;;;;;4972154;28;20804;-66
2021/08/12 01:20:36;;;;;;;12.48;7.38;;;;;;;;;;4971975;28;20027;-66
2021/08/12 01:23:04;;;;;;;13.00;7.50;;;;;;;;;;4971760;28;20030;-67
2021/08/12 01:25:30;;;;;;;11.30;7.75;;;;;;;;;;4974089;28;20035;-67
2021/08/12 01:27:59;;;;;;;12.98;7.72;;;;;;;;;;4972612;28;20015;-68
2021/08/12 01:30:26;;;;;;;15.00;7.38;;;;;;;;;;4971838;28;20182;-67
2021/08/12 01:33:13;;;;;;;12.35;7.22;;;;;;;;;;4972426;28;20026;-67
2021/08/12 01:35:38;;;;;;;10.85;7.53;;;;;;;;;;4971884;28;20026;-67
2021/08/12 01:38:09;;;;;;;11.50;7.22;;;;;;;;;;4971914;28;20033;-67
2021/08/12 01:40:35;;;;;;;12.48;7.35;;;;;;;;;;4972123;28;20533;-67
2021/08/12 01:43:02;;;;;;;11.88;8.20;;;;;;;;;;4971870;28;20054;-67
2021/08/12 01:45:28;;;;;;;10.90;7.65;;;;;;;;;;4972040;28;20098;-66
2021/08/12 01:47:54;;;;;;;11.48;6.97;;;;;;;;;;4972128;28;20390;-67
2021/08/12 01:50:19;;;;;;;11.75;7.97;;;;;;;;;;4971511;28;20098;-68
2021/08/12 01:52:48;;;;;;;11.43;7.90;;;;;;;;;;4972111;28;20027;-67
2021/08/12 01:55:15;;;;;;;10.23;6.75;;;;;;;;;;4974798;28;20101;-67
2021/08/12 01:57:40;;;;;;;12.75;7.60;;;;;;;;;;4974495;28;20034;-67
2021/08/12 02:00:06;;;;;;;15.30;8.13;;;;;;;;;;4971949;28;20019;-68
2021/08/12 02:02:32;;;;;;;11.25;6.88;;;;;;;;;;4971939;28;20027;-68
2021/08/12 02:04:58;;;;;;;11.63;6.75;;;;;;;;;;4971794;28;20031;-66
2021/08/12 02:07:23;;;;;;;10.63;6.97;;;;;;;;;;4972003;28;20023;-66
2021/08/12 02:09:48;;;;;;;15.77;8.35;;;;;;;;;;4971723;28;20054;-67
2021/08/12 02:12:13;;;;;;;10.73;6.40;;;;;;;;;;4970473;28;20098;-66
2021/08/12 02:14:39;;;;;;;11.77;7.27;;;;;;;;;;4971468;28;20317;-67
2021/08/12 02:17:05;;;;;;;11.80;6.55;;;;;;;;;;4970979;28;20693;-66
2021/08/12 02:19:31;;;;;;;15.52;8.18;;;;;;;;;;4971427;28;20018;-67
2021/08/12 02:22:06;;;;;;;10.57;7.35;;;;;;;;;;4971273;28;20019;-66
2021/08/12 02:24:42;;;;;;;12.75;7.60;;;;;;;;;;4971427;28;20034;-67
2021/08/12 02:27:12;;;;;;;12.75;7.85;;;;;;;;;;4973697;28;20505;-67
2021/08/12 02:29:38;;;;;;;12.90;6.90;;;;;;;;;;4971343;28;20019;-67
2021/08/12 02:32:04;;;;;;;12.55;7.25;;;;;;;;;;4971097;28;20105;-67
2021/08/12 02:34:30;;;;;;;10.40;7.63;;;;;;;;;;4971043;28;20015;-67
2021/08/12 02:36:56;;;;;;;14.35;8.02;;;;;;;;;;4970656;28;20023;-66
2021/08/12 02:39:22;;;;;;;13.95;7.53;;;;;;;;;;4971299;28;20030;-68
2021/08/12 02:41:47;;;;;;;13.13;7.63;;;;;;;;;;4971124;28;20030;-66
2021/08/12 02:44:13;;;;;;;13.32;7.95;;;;;;;;;;4970504;28;20457;-67
2021/08/12 02:46:38;;;;;;;17.10;8.60;;;;;;;;;;4970622;28;20027;-66
2021/08/12 02:49:04;;;;;;;13.27;8.07;;;;;;;;;;4970826;28;20110;-67
2021/08/12 02:51:31;;;;;;;10.20;7.05;;;;;;;;;;4970854;28;20019;-67
2021/08/12 02:53:56;;;;;;;10.35;6.93;;;;;;;;;;4970336;28;20422;-67
2021/08/12 02:56:22;;;;;;;11.43;7.43;;;;;;;;;;4970979;28;20106;-69
2021/08/12 02:58:48;;;;;;;12.88;8.02;;;;;;;;;;4970420;28;20173;-66
2021/08/12 03:01:14;;;;;;;11.02;6.93;;;;;;;;;;4970275;28;20105;-67
2021/08/12 03:03:41;;;;;;;13.05;7.72;;;;;;;;;;4970132;28;20049;-67
2021/08/12 03:06:08;;;;;;;10.68;7.45;;;;;;;;;;4970228;28;20029;-67
2021/08/12 03:08:34;;;;;;;10.13;7.82;;;;;;;;;;4970625;28;20479;-67
2021/08/12 03:10:59;;;;;;;14.40;7.57;;;;;;;;;;4970165;28;20132;-67
2021/08/12 03:13:25;;;;;;;12.55;7.97;;;;;;;;;;4970702;28;20049;-67
2021/08/12 03:15:50;;;;;;;12.35;7.63;;;;;;;;;;4970064;28;20181;-66
2021/08/12 03:18:15;;;;;;;12.20;7.75;;;;;;;;;;4970234;28;20505;-67
2021/08/12 03:20:41;;;;;;;10.10;7.00;;;;;;;;;;4970046;28;20047;-67
2021/08/12 03:23:07;;;;;;;12.80;7.72;;;;;;;;;;4969933;28;20023;-67
2021/08/12 03:25:32;;;;;;;12.13;7.55;;;;;;;;;;4973686;28;20058;-67
2021/08/12 03:27:59;;;;;;;12.43;8.38;;;;;;;;;;4970106;28;20027;-66
2021/08/12 03:30:24;;;;;;;11.43;7.90;;;;;;;;;;4970153;28;20050;-67
2021/08/12 03:32:49;;;;;;;11.88;8.57;;;;;;;;;;4970255;28;20434;-66
2021/08/12 03:35:14;;;;;;;10.97;7.43;;;;;;;;;;4969629;28;20023;-67
2021/08/12 03:37:40;;;;;;;16.38;8.63;;;;;;;;;;4970422;28;20316;-67
2021/08/12 03:40:05;;;;;;;11.85;8.25;;;;;;;;;;4970182;28;20570;-68
2021/08/12 03:42:30;;;;;;;12.82;8.70;;;;;;;;;;4968638;28;20479;-67
2021/08/12 03:44:56;;;;;;;13.43;8.82;;;;;;;;;;4970275;28;20050;-67
2021/08/12 03:47:22;;;;;;;10.93;7.43;;;;;;;;;;4969699;28;20039;-66
2021/08/12 03:49:47;;;;;;;12.43;8.25;;;;;;;;;;4969738;28;20362;-67
2021/08/12 03:52:12;;;;;;;11.65;7.97;;;;;;;;;;4970048;28;20097;-67
2021/08/12 03:54:37;;;;;;;12.35;7.70;;;;;;;;;;4969678;28;20019;-67
2021/08/12 03:57:03;;;;;;;13.73;8.63;;;;;;;;;;4970435;28;20035;-67
2021/08/12 03:59:28;;;;;;;14.00;8.85;;;;;;;;;;4969998;28;20078;-67
2021/08/12 04:01:53;;;;;;;14.27;7.60;;;;;;;;;;4969950;28;20509;-67
2021/08/12 04:04:19;;;;;;;11.40;7.53;;;;;;;;;;4969534;28;20289;-67
2021/08/12 04:06:44;;;;;;;19.50;8.10;;;;;;;;;;4969578;28;20027;-67
2021/08/12 04:09:09;;;;;;;13.18;7.97;;;;;;;;;;4969654;28;20266;-67
2021/08/12 04:11:34;;;;;;;11.63;8.48;;;;;;;;;;4969918;28;20113;-66
2021/08/12 04:13:59;;;;;;;14.27;8.50;;;;;;;;;;4969714;28;20038;-67
2021/08/12 04:16:24;;;;;;;13.07;8.80;;;;;;;;;;4969641;28;20588;-66
2021/08/12 04:18:50;;;;;;;14.13;9.05;;;;;;;;;;4969640;28;20266;-67
2021/08/12 04:21:15;;;;;;;12.27;8.40;;;;;;;;;;4969510;28;20517;-67
2021/08/12 04:23:40;;;;;;;12.70;7.65;;;;;;;;;;4969621;28;20290;-67
2021/08/12 04:26:05;;;;;;;11.48;7.90;;;;;;;;;;4973662;28;20053;-67
2021/08/12 04:28:30;;;;;;;12.07;7.95;;;;;;;;;;4968096;28;20031;-67
2021/08/12 04:30:56;;;;;;;13.77;8.63;;;;;;;;;;4969491;28;20019;-66
2021/08/12 04:33:21;;;;;;;12.27;7.82;;;;;;;;;;4969543;28;20267;-66
2021/08/12 04:35:46;;;;;;;17.53;10.20;;;;;;;;;;4971944;28;20092;-67
2021/08/12 04:38:11;;;;;;;12.75;7.63;;;;;;;;;;4973132;28;20290;-66
2021/08/12 04:40:37;;;;;;;13.80;8.90;;;;;;;;;;4972956;28;20022;-67
2021/08/12 04:43:02;;;;;;;14.50;9.45;;;;;;;;;;4972974;28;20062;-66
2021/08/12 04:45:27;;;;;;;16.40;9.10;;;;;;;;;;4973142;28;20023;-66
2021/08/12 04:48:00;;;;;;;10.68;7.15;;;;;;;;;;4973528;28;20015;-67
2021/08/12 04:50:25;;;;;;;15.52;8.35;;;;;;;;;;4973368;28;20045;-66
2021/08/12 04:52:50;;;;;;;11.40;8.00;;;;;;;;;;4972855;28;20106;-67
2021/08/12 04:55:16;;;;;;;12.03;7.37;;;;;;;;;;4972915;28;20045;-65
2021/08/12 04:57:41;;;;;;;12.40;8.17;;;;;;;;;;4972912;28;20282;-67
2021/08/12 05:00:06;;;;;;;11.13;7.60;;;;;;;;;;4972754;28;20619;-67
2021/08/12 05:02:32;;;;;;;12.23;8.40;;;;;;;;;;4972783;28;20266;-67
2021/08/12 05:04:57;;;;;;;14.10;8.82;;;;;;;;;;4972703;28;20030;-68
2021/08/12 05:07:22;;;;;;;12.00;7.97;;;;;;;;;;4972538;28;20467;-67
2021/08/12 05:09:47;;;;;;;13.18;9.27;;;;;;;;;;4973129;28;20269;-68
2021/08/12 05:12:17;;;;;;;14.07;8.77;;;;;;;;;;4973245;28;20015;-67
2021/08/12 05:14:42;;;;;;;12.02;7.78;;;;;;;;;;4966710;28;20023;-67
2021/08/12 05:17:07;;;;;;;14.77;7.80;;;;;;;;;;4972763;28;20486;-68
2021/08/12 05:19:32;;;;;;;14.90;7.57;;;;;;;;;;4972900;28;20250;-67
2021/08/12 05:21:57;;;;;;;11.20;7.38;;;;;;;;;;4972737;28;20269;-66
2021/08/12 05:24:23;;;;;;;11.40;6.63;;;;;;;;;;4972306;28;20030;-67
2021/08/12 05:26:48;;;;;;;11.73;7.28;;;;;;;;;;4974356;28;20305;-66
2021/08/12 05:29:13;;;;;;;10.02;7.47;;;;;;;;;;4972301;28;20026;-67
2021/08/12 05:31:38;;;;;;;13.83;7.53;;;;;;;;;;4972334;28;20031;-66
2021/08/12 05:34:03;;;;;;;11.88;7.22;;;;;;;;;;4972042;28;20266;-66
2021/08/12 05:36:29;;;;;;;11.15;7.40;;;;;;;;;;4972149;28;20948;-66
2021/08/12 05:38:57;;;;;;;11.63;7.77;;;;;;;;;;4971962;28;20046;-67
2021/08/12 05:41:22;;;;;;;13.82;6.97;;;;;;;;;;4972050;28;20254;-66
2021/08/12 05:43:48;;;;;;;11.40;6.93;;;;;;;;;;4971700;28;20051;-66
2021/08/12 05:46:13;;;;;;;10.27;6.88;;;;;;;;;;4971785;28;20041;-66
2021/08/12 05:48:38;;;;;;;10.50;7.67;;;;;;;;;;4972303;28;20030;-66
2021/08/12 05:51:03;;;;;;;13.13;7.43;;;;;;;;;;4971714;28;20768;-67
2021/08/12 05:53:30;;;;;;;10.45;7.00;;;;;;;;;;4972332;28;20345;-67
2021/08/12 05:55:55;;;;;;;11.98;7.80;;;;;;;;;;4971962;28;20469;-66
2021/08/12 05:58:20;;;;;;;11.47;6.70;;;;;;;;;;4965448;28;20491;-67
2021/08/12 06:00:45;;;;;;;10.20;7.25;;;;;;;;;;4971524;28;20258;-67
2021/08/12 06:03:12;;;;;;;12.95;7.25;;;;;;;;;;4971599;28;20042;-66
2021/08/12 06:05:37;;;;;;;15.27;7.10;;;;;;;;;;4971403;28;20113;-66
2021/08/12 06:08:04;;;;;;;12.45;7.68;;;;;;;;;;4971582;28;20122;-66
2021/08/12 06:10:30;;;;;;;10.07;7.05;;;;;;;;;;4971766;28;20035;-66
2021/08/12 06:12:56;;;;;;;10.25;7.13;;;;;;;;;;4972049;28;20030;-67
2021/08/12 06:15:21;;;;;;;10.60;6.93;;;;;;;;;;4971924;28;20022;-66
2021/08/12 06:17:46;;;;;;;10.93;6.72;;;;;;;;;;4971657;28;20207;-66
2021/08/12 06:20:12;;;;;;;10.23;6.57;;;;;;;;;;4971338;28;20109;-67
2021/08/12 06:22:37;;;;;;;9.60;6.38;;;;;;;;;;4971700;28;20840;-66
2021/08/12 06:25:03;;;;;;;9.05;6.38;;;;;;;;;;4972932;28;20513;-67
2021/08/12 06:27:28;;;;;;;8.73;6.28;;;;;;;;;;4975402;28;20055;-66
2021/08/12 06:29:53;;;;;;;8.90;6.32;;;;;;;;;;4971493;28;20035;-67
2021/08/12 06:32:18;;;;;;;9.83;5.77;;;;;;;;;;4970764;28;20046;-67
2021/08/12 06:34:43;;;;;;;9.60;6.13;;;;;;;;;;4971441;28;20266;-67
2021/08/12 06:37:08;;;;;;;8.40;5.43;;;;;;;;;;4986055;28;20497;-66
2021/08/12 06:39:34;;;;;;;8.73;5.97;;;;;;;;;;4971224;28;20082;-66
2021/08/12 06:41:59;;;;;;;7.87;5.87;;;;;;;;;;4971039;28;20562;-66
2021/08/12 06:44:24;;;;;;;10.00;6.15;;;;;;;;;;4970741;28;20313;-66
2021/08/12 06:46:49;;;;;;;7.80;5.30;;;;;;;;;;4971159;28;20113;-66
2021/08/12 06:49:14;;;;;;;8.60;5.53;;;;;;;;;;4971144;28;20438;-66
2021/08/12 06:51:40;;;;;;;7.97;5.33;;;;;;;;;;4970793;28;20274;-67
2021/08/12 06:54:05;;;;;;;8.93;5.40;;;;;;;;;;4970896;28;20026;-68
2021/08/12 06:56:30;;;;;;;8.20;5.47;;;;;;;;;;4973056;28;20332;-67
2021/08/12 06:58:56;;;;;;;8.38;6.13;;;;;;;;;;4970492;28;20026;-67
2021/08/12 07:01:21;;;;;;;8.38;6.20;;;;;;;;;;4970884;28;20030;-67
2021/08/12 07:03:46;;;;;;;9.32;5.70;;;;;;;;;;4970818;28;20077;-67
2021/08/12 07:06:12;;;;;;;10.10;6.10;;;;;;;;;;4970307;28;20379;-66
2021/08/12 07:08:37;;;;;;;8.43;6.00;;;;;;;;;;4971059;28;20026;-67
2021/08/12 07:11:02;;;;;;;10.60;5.87;;;;;;;;;;4970680;28;20387;-66
2021/08/12 07:13:27;;;;;;;8.27;5.97;;;;;;;;;;4970628;28;20028;-66
2021/08/12 07:15:52;;;;;;;9.02;5.90;;;;;;;;;;4970242;28;20757;-66
2021/08/12 07:18:17;;;;;;;10.17;6.33;;;;;;;;;;4970475;28;20031;-66
2021/08/12 07:20:43;;;;;;;11.80;6.27;;;;;;;;;;4970673;28;20266;-66
2021/08/12 07:23:08;;;;;;;7.97;5.82;;;;;;;;;;4970625;28;20356;-67
2021/08/12 07:25:34;;;;;;;9.40;5.57;;;;;;;;;;4976218;28;20088;-66
2021/08/12 07:27:59;;;;;;;9.35;5.97;;;;;;;;;;4970737;28;20019;-66
2021/08/12 07:30:24;;;;;;;9.10;5.97;;;;;;;;;;4970620;28;20029;-67
2021/08/12 07:32:50;;;;;;;8.57;6.17;;;;;;;;;;4970798;28;20096;-67
2021/08/12 07:35:18;;;;;;;11.48;6.30;;;;;;;;;;4970875;28;20353;-67
2021/08/12 07:37:43;;;;;;;8.15;5.82;;;;;;;;;;4970271;28;20065;-67
2021/08/12 07:40:08;;;;;;;8.07;5.73;;;;;;;;;;4970414;28;20062;-67
2021/08/12 07:42:33;;;;;;;10.35;5.82;;;;;;;;;;4970100;28;20101;-66
2021/08/12 07:45:01;;;;;;;9.30;5.40;;;;;;;;;;4970509;28;20031;-67
2021/08/12 07:47:26;;;;;;;7.13;5.38;;;;;;;;;;4970343;28;20604;-66
2021/08/12 07:49:51;;;;;;;8.10;5.68;;;;;;;;;;4970314;28;20026;-67
2021/08/12 07:52:16;;;;;;;7.77;5.80;;;;;;;;;;4970213;28;20034;-66
2021/08/12 07:54:45;;;;;;;10.23;5.90;;;;;;;;;;4969904;28;20768;-67
2021/08/12 07:57:11;;;;;;;8.27;5.78;;;;;;;;;;4973412;28;20027;-66
2021/08/12 07:59:36;;;;;;;8.97;6.37;;;;;;;;;;4969859;28;20113;-66
2021/08/12 08:02:01;;;;;;;9.75;5.95;;;;;;;;;;4970147;28;20510;-65
2021/08/12 08:04:27;;;;;;;12.77;5.95;;;;;;;;;;4970325;28;20035;-66
2021/08/12 08:06:52;;;;;;;9.77;5.88;;;;;;;;;;4970337;28;20426;-66
2021/08/12 08:09:17;;;;;;;9.52;5.63;;;;;;;;;;4970831;28;20510;-67
2021/08/12 08:11:42;;;;;;;9.37;5.70;;;;;;;;;;4974184;28;20023;-67
2021/08/12 08:14:08;;;;;;;8.97;5.80;;;;;;;;;;4967162;28;20353;-66
2021/08/12 08:16:33;;;;;;;9.82;5.65;;;;;;;;;;4974161;28;20262;-67
2021/08/12 08:18:58;;;;;;;8.80;5.73;;;;;;;;;;4973547;28;20395;-67
2021/08/12 08:21:23;;;;;;;7.70;5.30;;;;;;;;;;4972847;28;20325;-66
2021/08/12 08:23:48;;;;;;;9.73;5.80;;;;;;;;;;4973877;28;20294;-67
2021/08/12 08:26:14;;;;;;;7.63;5.67;;;;;;;;;;4973471;28;20277;-66
2021/08/12 08:28:39;;;;;;;9.00;5.47;;;;;;;;;;4975114;28;20258;-67
2021/08/12 08:31:04;;;;;;;8.10;5.10;;;;;;;;;;4973664;28;20695;-66
2021/08/12 08:33:35;;;;;;;6.68;5.20;;;;;;;;;;4973676;28;20346;-66
2021/08/12 08:36:00;;;;;;;8.75;5.25;;;;;;;;;;4973384;28;20478;-66
2021/08/12 08:38:25;;;;;;;8.33;5.30;;;;;;;;;;4973708;28;20073;-66
2021/08/12 08:40:51;;;;;;;7.30;5.23;;;;;;;;;;4973729;28;20070;-66
2021/08/12 08:43:17;;;;;;;9.35;5.30;;;;;;;;;;4972989;28;20300;-67
2021/08/12 08:45:43;;;;;;;7.93;5.75;;;;;;;;;;4973226;28;20023;-67
2021/08/12 08:48:10;;;;;;;9.98;6.47;;;;;;;;;;4973515;28;20023;-65
2021/08/12 08:50:37;;;;;;;10.50;5.80;;;;;;;;;;4973177;28;20029;-65
2021/08/12 08:53:03;;;;;;;8.43;5.55;;;;;;;;;;4973075;28;20554;-66
2021/08/12 08:55:28;;;;;;;10.45;5.75;;;;;;;;;;4977194;28;20474;-65
2021/08/12 08:57:54;;;;;;;9.00;5.97;;;;;;;;;;4972859;28;20037;-67
2021/08/12 09:00:20;;;;;;;8.82;6.00;;;;;;;;;;4973384;28;20054;-67
2021/08/12 09:02:46;;;;;;;7.75;5.57;;;;;;;;;;4972968;28;20049;-66
2021/08/12 09:05:11;;;;;;;7.32;5.43;;;;;;;;;;4966598;28;20034;-66
2021/08/12 09:07:37;;;;;;;8.07;5.80;;;;;;;;;;4972813;28;20015;-65
2021/08/12 09:10:02;;;;;;;9.95;5.90;;;;;;;;;;4973079;28;20084;-66
2021/08/12 09:12:30;;;;;;;10.13;6.35;;;;;;;;;;4972852;28;20023;-65
2021/08/12 09:15:00;;;;;;;9.23;5.65;;;;;;;;;;4972830;28;20168;-66
2021/08/12 09:17:26;;;;;;;11.70;6.45;;;;;;;;;;4973120;28;20055;-65
2021/08/12 09:20:08;;;;;;;9.55;6.35;;;;;;;;;;4972030;28;20034;-67
2021/08/12 09:22:46;;;;;;;9.45;5.50;;;;;;;;;;4972896;28;20023;-66
2021/08/12 09:25:12;;;;;;;9.65;6.35;;;;;;;;;;4972480;28;20394;-67
2021/08/12 09:27:37;;;;;;;9.88;6.28;;;;;;;;;;4972751;28;20026;-67
2021/08/12 09:30:09;;;;;;;9.77;6.67;;;;;;;;;;4972410;28;20026;-66
2021/08/12 09:33:03;;;;;;;8.05;5.80;;;;;;;;;;4972845;28;20099;-66
2021/08/12 09:35:28;;;;;;;9.57;5.63;;;;;;;;;;4964873;28;20629;-67
2021/08/12 09:38:07;;;;;;;11.50;6.07;;;;;;;;;;4957351;28;20031;-66
2021/08/12 09:40:32;;;;;;;8.45;5.75;;;;;;;;;;4950808;28;20035;-66
2021/08/12 09:43:01;;;;;;;9.33;6.10;;;;;;;;;;4950690;28;20070;-66
2021/08/12 09:45:28;;;;;;;8.25;5.70;;;;;;;;;;4968870;28;20815;-67
2021/08/12 09:47:53;;;;;;;12.60;6.05;;;;;;;;;;4969173;28;20519;-66
2021/08/12 09:50:31;;;;;;;7.90;5.90;;;;;;;;;;4957936;28;20034;-66
2021/08/12 09:52:56;;;;;;;9.07;6.18;;;;;;;;;;4956909;28;20035;-65
2021/08/12 09:55:22;;;;;;;8.65;5.97;;;;;;;;;;4954537;28;20511;-66
2021/08/12 09:57:48;;;;;;;8.10;6.00;;;;;;;;;;4957567;28;20486;-67
2021/08/12 10:00:30;;;;;;;11.30;6.47;;;;;;;;;;4968376;28;20019;-66
2021/08/12 10:02:56;;;;;;;7.50;5.50;;;;;;;;;;4968767;28;20034;-67
2021/08/12 10:05:21;;;;;;;9.55;6.13;;;;;;;;;;4934401;28;20039;-66
2021/08/12 10:07:47;;;;;;;6.65;5.50;;;;;;;;;;4950237;28;20558;-67
2021/08/12 10:10:20;;;;;;;9.13;5.75;;;;;;;;;;4963259;28;20121;-67
2021/08/12 10:12:47;;;;;;;12.77;5.47;;;;;;;;;;4965630;28;20086;-66
2021/08/12 10:15:13;;;;;;;7.45;5.55;;;;;;;;;;4971374;28;20565;-66
2021/08/12 10:17:40;;;;;;;7.50;5.18;;;;;;;;;;4972261;28;20061;-65
2021/08/12 10:20:06;;;;;;;8.80;5.60;;;;;;;;;;4965064;28;20494;-66
2021/08/12 10:22:31;;;;;;;8.07;5.15;;;;;;;;;;4971596;28;20023;-67
2021/08/12 10:24:56;;;;;;;10.55;5.00;;;;;;;;;;4971519;28;20070;-66
2021/08/12 10:27:22;;;;;;;7.57;5.30;;;;;;;;;;4971649;28;20026;-65
2021/08/12 10:29:48;;;;;;;7.93;5.55;;;;;;;;;;4971341;28;20303;-66
2021/08/12 10:32:14;;;;;;;8.07;5.70;;;;;;;;;;4970547;28;20023;-66
2021/08/12 10:34:40;;;;;;;9.85;5.65;;;;;;;;;;4970057;28;20035;-66
2021/08/12 10:37:05;;;;;;;8.20;5.78;;;;;;;;;;4970922;28;20454;-66
2021/08/12 10:39:30;;;;;;;10.60;5.50;;;;;;;;;;4971369;28;20026;-66
2021/08/12 10:41:56;;;;;;;8.60;5.75;;;;;;;;;;4971541;28;20065;-66
2021/08/12 10:44:21;;;;;;;8.95;5.90;;;;;;;;;;4970781;28;20050;-66
2021/08/12 10:46:46;;;;;;;10.15;6.00;;;;;;;;;;4971042;28;20031;-66
2021/08/12 10:49:31;;;;;;;8.45;5.65;;;;;;;;;;4971537;28;20054;-66
2021/08/12 10:52:04;;;;;;;10.75;5.80;;;;;;;;;;4970557;28;20355;-66
2021/08/12 10:54:30;;;;;;;8.25;5.47;;;;;;;;;;4985395;28;20038;-67
2021/08/12 10:57:14;;;;;;;9.27;6.10;;;;;;;;;;4976824;28;20477;-67
2021/08/12 10:59:40;;;;;;;12.38;5.40;;;;;;;;;;4970875;28;20127;-66
2021/08/12 11:02:24;;;;;;;7.97;5.47;;;;;;;;;;4970736;28;20113;-67
2021/08/12 11:04:50;;;;;;;9.23;5.55;;;;;;;;;;4966420;28;20103;-66
2021/08/12 11:07:34;;;;;;;7.45;5.43;;;;;;;;;;4970600;28;20023;-66
2021/08/12 11:10:00;;;;;;;8.25;5.72;;;;;;;;;;4970949;28;20037;-66
2021/08/12 11:12:45;;;;;;;7.57;5.88;;;;;;;;;;4970824;28;20105;-65
2021/08/12 11:15:10;;;;;;;7.75;5.40;;;;;;;;;;4970228;28;20033;-67
2021/08/12 11:18:02;;;;;;;9.80;5.60;;;;;;;;;;4970995;28;20101;-66
2021/08/12 11:20:32;;;;;;;9.93;5.55;;;;;;;;;;4970314;28;20070;-66
2021/08/12 11:23:17;;;;;;;8.82;6.07;;;;;;;;;;4970264;28;20023;-66
2021/08/12 11:25:55;;;;;;;9.05;5.93;;;;;;;;;;4973053;28;20517;-66
2021/08/12 11:28:38;;;;;;;8.95;5.53;;;;;;;;;;4970500;28;20046;-66
2021/08/12 11:31:03;;;;;;;9.32;5.35;;;;;;;;;;4965504;28;20022;-66
2021/08/12 11:33:29;;;;;;;7.68;4.90;;;;;;;;;;4970222;28;20479;-66
2021/08/12 11:36:09;;;;;;;11.13;5.13;;;;;;;;;;4970579;28;20029;-66
2021/08/12 11:38:35;;;;;;;6.00;4.85;;;;;;;;;;4970304;28;20031;-66
2021/08/12 11:41:00;;;;;;;8.75;5.32;;;;;;;;;;4970538;28;20422;-66
2021/08/12 11:43:26;;;;;;;6.80;4.85;;;;;;;;;;4969724;28;20525;-66
2021/08/12 11:45:51;;;;;;;7.40;4.97;;;;;;;;;;4970323;28;20110;-66
2021/08/12 11:48:17;;;;;;;9.55;5.20;;;;;;;;;;4970387;28;20023;-66
2021/08/12 11:50:42;;;;;;;8.57;5.60;;;;;;;;;;4970402;28;20407;-66
2021/08/12 11:53:08;;;;;;;6.70;5.10;;;;;;;;;;4970256;28;20027;-67
2021/08/12 11:55:35;;;;;;;7.70;5.18;;;;;;;;;;4976089;28;21081;-66
2021/08/12 11:58:01;;;;;;;13.23;5.10;;;;;;;;;;4970656;28;20023;-67
2021/08/12 12:00:33;;;;;;;10.10;5.30;;;;;;;;;;4970245;28;20029;-66
2021/08/12 12:02:59;;;;;;;11.85;5.18;;;;;;;;;;4969946;28;20478;-66
2021/08/12 12:05:26;;;;;;;11.05;5.80;;;;;;;;;;4970179;28;20089;-66
2021/08/12 12:07:58;;;;;;;8.70;5.05;;;;;;;;;;4969885;28;20027;-66
2021/08/12 12:10:25;;;;;;;9.80;5.25;;;;;;;;;;4969994;28;20086;-67
2021/08/12 12:12:50;;;;;;;7.38;5.07;;;;;;;;;;4969994;28;20015;-66
2021/08/12 12:15:28;;;;;;;7.32;5.05;;;;;;;;;;4970054;28;20379;-67
2021/08/12 12:17:53;;;;;;;8.63;5.35;;;;;;;;;;4970414;28;20019;-66
2021/08/12 12:20:18;;;;;;;9.50;5.20;;;;;;;;;;4970105;28;20025;-66
2021/08/12 12:22:55;;;;;;;9.00;5.57;;;;;;;;;;4970127;28;20034;-66
2021/08/12 12:25:21;;;;;;;8.23;5.05;;;;;;;;;;4967995;28;20104;-67
2021/08/12 12:27:47;;;;;;;6.43;4.82;;;;;;;;;;4969787;28;20018;-67
2021/08/12 12:30:13;;;;;;;6.85;4.53;;;;;;;;;;4970276;28;20027;-67
2021/08/12 12:32:39;;;;;;;8.13;5.18;;;;;;;;;;4963826;28;20419;-67
2021/08/12 12:35:05;;;;;;;9.05;5.30;;;;;;;;;;4970105;28;20128;-67
2021/08/12 12:37:31;;;;;;;6.55;4.60;;;;;;;;;;4970237;28;20019;-67
2021/08/12 12:39:57;;;;;;;7.75;4.20;;;;;;;;;;4970098;28;20038;-67
2021/08/12 12:42:22;;;;;;;6.95;4.40;;;;;;;;;;4969978;28;20019;-67
2021/08/12 12:44:54;;;;;;;8.10;4.70;;;;;;;;;;4969281;28;20058;-67
2021/08/12 12:47:26;;;;;;;10.52;4.68;;;;;;;;;;4969596;28;20026;-66
2021/08/12 12:49:51;;;;;;;6.75;4.60;;;;;;;;;;4969915;28;20030;-67
2021/08/12 12:52:17;;;;;;;6.25;4.88;;;;;;;;;;4955579;28;20023;-67
2021/08/12 12:54:44;;;;;;;6.65;4.47;;;;;;;;;;4970134;28;20039;-66
2021/08/12 12:57:09;;;;;;;8.77;4.25;;;;;;;;;;4973727;28;20022;-66
2021/08/12 12:59:34;;;;;;;8.40;5.00;;;;;;;;;;4972804;28;20470;-66
2021/08/12 13:02:00;;;;;;;8.40;4.78;;;;;;;;;;4973319;28;20034;-66
2021/08/12 13:04:25;;;;;;;9.30;5.10;;;;;;;;;;4972780;28;20035;-67
2021/08/12 13:06:51;;;;;;;5.45;3.83;;;;;;;;;;4972879;28;20081;-67
2021/08/12 13:09:38;;;;;;;9.00;4.88;;;;;;;;;;4972919;28;20030;-66
2021/08/12 13:12:22;;;;;;;5.80;4.32;;;;;;;;;;4972633;28;20023;-66
2021/08/12 13:14:47;;;;;;;10.25;4.90;;;;;;;;;;4972929;28;20038;-66
2021/08/12 13:17:12;;;;;;;5.90;4.63;;;;;;;;;;4972619;28;20025;-67
2021/08/12 13:19:38;;;;;;;6.00;4.10;;;;;;;;;;4972702;28;20024;-67
2021/08/12 13:22:17;;;;;;;7.70;4.57;;;;;;;;;;4972494;28;20320;-66
2021/08/12 13:24:42;;;;;;;6.97;4.40;;;;;;;;;;4972834;28;20290;-67
2021/08/12 13:27:08;;;;;;;6.30;4.70;;;;;;;;;;4983219;28;20030;-66
2021/08/12 13:29:36;;;;;;;9.82;4.97;;;;;;;;;;4972650;28;20035;-66
2021/08/12 13:32:06;;;;;;;11.10;5.35;;;;;;;;;;4972257;28;20026;-66
2021/08/12 13:34:31;;;;;;;7.65;4.63;;;;;;;;;;4972551;28;20031;-66
2021/08/12 13:36:57;;;;;;;8.23;4.63;;;;;;;;;;4972234;28;20493;-66
2021/08/12 13:39:22;;;;;;;7.32;4.22;;;;;;;;;;4986347;28;20045;-67
2021/08/12 13:41:59;;;;;;;7.75;4.55;;;;;;;;;;4972462;28;20463;-66
2021/08/12 13:44:25;;;;;;;6.05;3.97;;;;;;;;;;4971759;28;20138;-66
2021/08/12 13:46:51;;;;;;;7.65;4.45;;;;;;;;;;4972490;28;20022;-66
2021/08/12 13:49:16;;;;;;;7.07;4.30;;;;;;;;;;4971669;28;20038;-67
2021/08/12 13:51:41;;;;;;;9.63;4.40;;;;;;;;;;4972021;28;20015;-67
2021/08/12 13:54:07;;;;;;;9.87;4.60;;;;;;;;;;4971811;28;20118;-65
2021/08/12 13:56:32;;;;;;;10.53;5.40;;;;;;;;;;4972285;28;20383;-66
2021/08/12 13:58:57;;;;;;;9.05;4.65;;;;;;;;;;4971546;28;20914;-66
2021/08/12 14:01:23;;;;;;;7.63;5.00;;;;;;;;;;4972155;28;20019;-67
2021/08/12 14:03:48;;;;;;;10.23;4.97;;;;;;;;;;4971425;28;20294;-67
2021/08/12 14:06:13;;;;;;;9.80;4.97;;;;;;;;;;4971648;28;20014;-66
2021/08/12 14:08:38;;;;;;;9.57;4.57;;;;;;;;;;4971589;28;20664;-66
2021/08/12 14:11:03;;;;;;;6.78;4.47;;;;;;;;;;4971877;28;20034;-67
2021/08/12 14:13:29;;;;;;;8.57;4.27;;;;;;;;;;4971472;28;20026;-67
2021/08/12 14:15:54;;;;;;;8.50;4.70;;;;;;;;;;4971755;28;20263;-66
2021/08/12 14:18:19;;;;;;;6.40;4.75;;;;;;;;;;4971270;28;20443;-66
2021/08/12 14:20:45;;;;;;;6.53;4.30;;;;;;;;;;4971701;28;20035;-68
2021/08/12 14:23:10;;;;;;;8.97;4.60;;;;;;;;;;4970989;28;20273;-67
2021/08/12 14:25:35;;;;;;;7.33;4.63;;;;;;;;;;4976451;28;20332;-67
2021/08/12 14:28:00;;;;;;;6.50;4.50;;;;;;;;;;4971328;28;20026;-67
2021/08/12 14:30:25;;;;;;;7.93;4.13;;;;;;;;;;4971415;28;20446;-67
2021/08/12 14:32:51;;;;;;;7.47;4.70;;;;;;;;;;4971199;28;20026;-67